createdAt,value
2023-03-02T00:00:11.565Z,23.63
2023-03-02T00:05:16.369Z,23.13
2023-03-02T00:10:19.905Z,18.53
2023-03-02T00:15:23.334Z,18.77
2023-03-02T00:20:29.137Z,24.17
2023-03-02T00:25:32.499Z,17.77
2023-03-02T00:30:36.247Z,20.87
2023-03-02T00:35:42.494Z,20.00
2023-03-02T00:40:47.379Z,19.87
2023-03-02T00:45:50.837Z,19.40
2023-03-02T00:50:55.550Z,18.37
2023-03-02T00:56:03.199Z,19.13
2023-03-02T01:01:10.541Z,18.70
2023-03-02T01:06:21.245Z,19.30
2023-03-02T01:11:25.123Z,18.60
2023-03-02T01:16:28.551Z,21.33
2023-03-02T01:21:38.738Z,21.30
2023-03-02T01:26:44.256Z,19.20
2023-03-02T01:31:48.072Z,20.73
2023-03-02T01:36:53.744Z,19.90
2023-03-02T01:41:57.544Z,18.60
2023-03-02T01:47:01.210Z,20.73
2023-03-02T01:52:06.346Z,19.83
2023-03-02T01:57:11.673Z,18.70
2023-03-02T02:02:15.326Z,15.47
2023-03-02T02:07:20.110Z,20.73
2023-03-02T02:12:24.853Z,20.50
2023-03-02T02:17:31.170Z,18.37
2023-03-02T02:22:44.729Z,19.10
2023-03-02T02:27:49.918Z,20.57
2023-03-02T02:32:55.583Z,19.33
2023-03-02T02:38:04.650Z,20.53
2023-03-02T02:43:13.926Z,21.57
2023-03-02T02:48:19.719Z,19.63
2023-03-02T02:53:28.808Z,20.30
2023-03-02T02:58:37.134Z,20.83
2023-03-02T03:03:40.974Z,20.73
2023-03-02T03:09:00.230Z,20.00
2023-03-02T03:14:14.431Z,20.53
2023-03-02T03:19:23.018Z,18.67
2023-03-02T03:24:29.323Z,19.23
2023-03-02T03:29:36.846Z,18.53
2023-03-02T03:34:45.498Z,20.63
2023-03-02T03:40:03.946Z,18.03
2023-03-02T03:45:13.127Z,20.50
2023-03-02T03:50:18.526Z,18.43
2023-03-02T03:55:24.221Z,16.17
2023-03-02T04:00:29.338Z,16.70
2023-03-02T04:05:39.139Z,19.60
2023-03-02T04:10:42.960Z,18.80
2023-03-02T04:15:48.634Z,17.33
2023-03-02T04:20:52.680Z,20.77
2023-03-02T04:25:56.154Z,16.63
2023-03-02T04:31:01.422Z,15.93
2023-03-02T04:36:08.944Z,18.73
2023-03-02T04:41:15.347Z,17.00
2023-03-02T04:46:23.912Z,16.27
2023-03-02T04:51:30.793Z,19.90
2023-03-02T04:56:34.943Z,17.93
2023-03-02T05:01:41.553Z,17.80
2023-03-02T05:06:45.200Z,17.37
2023-03-02T05:11:48.816Z,18.73
2023-03-02T05:16:54.121Z,17.50
2023-03-02T05:21:57.622Z,15.43
2023-03-02T05:27:01.022Z,15.03
2023-03-02T05:32:10.794Z,16.73
2023-03-02T05:37:14.379Z,15.50
2023-03-02T05:42:20.508Z,15.17
2023-03-02T05:47:25.387Z,14.67
2023-03-02T05:52:28.875Z,18.43
2023-03-02T05:57:32.317Z,18.50
2023-03-02T06:02:39.401Z,17.43
2023-03-02T06:07:42.795Z,17.50
2023-03-02T06:12:46.210Z,17.73
2023-03-02T06:17:53.160Z,16.13
2023-03-02T06:22:56.762Z,16.27
2023-03-02T06:28:00.265Z,16.80
2023-03-02T06:33:05.314Z,15.57
2023-03-02T06:38:08.637Z,17.00
2023-03-02T06:43:12.366Z,17.17
2023-03-02T06:48:17.518Z,17.93
2023-03-02T06:53:23.030Z,16.83
2023-03-02T06:58:26.462Z,16.37
2023-03-02T07:03:31.441Z,12.93
2023-03-02T07:08:36.131Z,11.53
2023-03-02T07:13:39.697Z,11.00
2023-03-02T07:18:44.456Z,19.67
2023-03-02T07:23:47.828Z,21.38
2023-03-02T07:28:51.365Z,22.42
2023-03-02T07:33:56.090Z,24.33
2023-03-02T07:38:59.504Z,21.75
2023-03-02T07:44:02.985Z,22.15
2023-03-02T07:49:08.001Z,24.35
2023-03-02T07:54:11.487Z,22.53
2023-03-02T07:59:15.107Z,23.57
2023-03-02T08:04:20.187Z,23.53
2023-03-02T08:09:23.470Z,22.00
2023-03-02T08:14:26.922Z,21.17
2023-03-02T08:19:31.730Z,21.73
2023-03-02T08:24:35.245Z,21.23
2023-03-02T08:29:39.172Z,19.00
2023-03-02T08:34:51.326Z,24.20
2023-03-02T08:39:54.611Z,22.33
2023-03-02T08:44:58.949Z,20.33
2023-03-02T08:50:08.417Z,22.50
2023-03-02T08:55:12.778Z,19.13
2023-03-02T09:00:18.147Z,18.20
2023-03-02T09:05:22.988Z,20.13
2023-03-02T09:10:26.677Z,23.67
2023-03-02T09:15:30.299Z,24.03
2023-03-02T09:20:35.757Z,19.23
2023-03-02T09:25:39.108Z,21.20
2023-03-02T09:30:42.430Z,29.23
2023-03-02T09:35:47.794Z,23.73
2023-03-02T09:41:16.949Z,24.50
2023-03-02T09:46:26.882Z,18.67
2023-03-02T09:51:36.890Z,21.37
2023-03-02T09:56:44.841Z,17.33
2023-03-02T10:01:53.646Z,21.05
2023-03-02T10:07:02.925Z,20.80
2023-03-02T10:12:20.355Z,20.50
2023-03-02T10:17:48.365Z,15.80
2023-03-02T10:22:58.721Z,19.65
2023-03-02T10:28:10.282Z,18.27
2023-03-02T10:33:17.188Z,18.05
2023-03-02T10:38:23.192Z,18.55
2023-03-02T10:43:31.695Z,20.08
2023-03-02T10:48:49.476Z,18.98
2023-03-02T10:54:04.931Z,19.10
2023-03-02T10:59:36.760Z,20.92
2023-03-02T11:04:40.326Z,16.63
2023-03-02T11:09:45.243Z,18.65
2023-03-02T11:14:48.584Z,16.15
2023-03-02T11:19:55.281Z,16.60
2023-03-02T11:25:05.546Z,14.82
2023-03-02T11:30:16.043Z,18.58
2023-03-02T11:35:32.293Z,15.98
2023-03-02T11:40:46.730Z,16.13
2023-03-02T11:46:01.782Z,17.48
2023-03-02T11:51:08.222Z,13.80
2023-03-02T11:56:13.409Z,14.95
2023-03-02T12:01:22.351Z,16.27
2023-03-02T12:06:37.688Z,14.90
2023-03-02T12:11:47.558Z,14.13
2023-03-02T12:16:51.337Z,14.82
2023-03-02T12:22:00.322Z,11.30
2023-03-02T12:27:08.292Z,9.73
2023-03-02T12:32:27.425Z,9.38
2023-03-02T12:37:34.431Z,11.25
2023-03-02T12:42:51.137Z,10.52
2023-03-02T12:48:03.020Z,9.50
2023-03-02T12:53:16.343Z,9.50
2023-03-02T12:58:23.107Z,11.90
2023-03-02T13:03:27.530Z,9.55
2023-03-02T13:08:32.287Z,9.93
2023-03-02T13:13:41.666Z,9.02
2023-03-02T13:18:45.889Z,11.27
2023-03-02T13:23:51.829Z,8.63
2023-03-02T13:29:08.718Z,10.93
2023-03-02T13:34:23.471Z,8.75
2023-03-02T13:39:29.155Z,10.40
2023-03-02T13:44:35.882Z,12.40
2023-03-02T13:49:39.225Z,10.40
2023-03-02T13:54:45.056Z,10.93
2023-03-02T13:59:50.199Z,10.13
2023-03-02T14:04:54.146Z,10.60
2023-03-02T14:09:57.706Z,12.30
2023-03-02T14:15:04.640Z,10.90
2023-03-02T14:20:11.211Z,11.32
2023-03-02T14:25:14.889Z,11.52
2023-03-02T14:30:22.853Z,9.70
2023-03-02T14:35:26.984Z,12.00
2023-03-02T14:40:30.387Z,11.43
2023-03-02T14:45:35.634Z,8.88
2023-03-02T14:50:41.833Z,10.82
2023-03-02T14:55:45.762Z,10.38
2023-03-02T15:00:51.031Z,11.38
2023-03-02T15:06:01.164Z,11.02
2023-03-02T15:11:04.842Z,10.15
2023-03-02T15:16:11.488Z,9.45
2023-03-02T15:21:18.251Z,12.48
2023-03-02T15:26:21.626Z,11.45
2023-03-02T15:31:28.300Z,12.07
2023-03-02T15:36:31.653Z,13.65
2023-03-02T15:41:35.375Z,11.50
2023-03-02T15:46:40.528Z,12.38
2023-03-02T15:51:43.909Z,12.43
2023-03-02T15:56:51.954Z,10.75
2023-03-02T16:01:59.691Z,10.30
2023-03-02T16:07:03.290Z,11.48
2023-03-02T16:12:07.431Z,9.57
2023-03-02T16:17:12.480Z,10.40
2023-03-02T16:22:16.103Z,9.20
2023-03-02T16:27:19.483Z,8.50
2023-03-02T16:32:24.462Z,11.27
2023-03-02T16:37:27.833Z,8.80
2023-03-02T16:42:31.944Z,10.38
2023-03-02T16:47:37.442Z,9.32
2023-03-02T16:52:41.313Z,7.32
2023-03-02T16:57:44.915Z,7.95
2023-03-02T17:02:51.413Z,7.80
2023-03-02T17:07:57.116Z,10.60
2023-03-02T17:13:00.818Z,7.65
2023-03-02T17:18:06.492Z,12.85
2023-03-02T17:23:12.812Z,10.80
2023-03-02T17:28:16.856Z,10.65
2023-03-02T17:33:24.339Z,10.57
2023-03-02T17:38:28.565Z,11.15
2023-03-02T17:43:34.208Z,9.55
2023-03-02T17:48:39.942Z,8.15
2023-03-02T17:53:45.298Z,11.15
2023-03-02T17:58:53.258Z,8.55
2023-03-02T18:03:58.447Z,8.65
2023-03-02T18:09:02.181Z,7.72
2023-03-02T18:14:06.589Z,9.00
2023-03-02T18:19:12.557Z,9.38
2023-03-02T18:24:19.505Z,9.77
2023-03-02T18:29:23.896Z,8.60
2023-03-02T18:34:34.021Z,9.73
2023-03-02T18:39:40.035Z,8.68
2023-03-02T18:44:45.875Z,11.00
2023-03-02T18:49:52.601Z,8.48
2023-03-02T18:54:58.362Z,8.90
2023-03-02T19:00:03.105Z,8.93
2023-03-02T19:05:10.418Z,9.45
2023-03-02T19:10:20.549Z,9.23
2023-03-02T19:15:26.813Z,13.27
2023-03-02T19:20:35.939Z,10.98
2023-03-02T19:25:42.704Z,11.55
2023-03-02T19:30:47.838Z,9.00
2023-03-02T19:35:54.495Z,9.25
2023-03-02T19:41:01.158Z,10.23
2023-03-02T19:46:06.425Z,9.07
2023-03-02T19:51:14.105Z,10.38
2023-03-02T19:56:21.684Z,10.15
2023-03-02T20:01:28.080Z,12.20
2023-03-02T20:06:35.877Z,12.43
2023-03-02T20:11:42.932Z,15.40
2023-03-02T20:16:48.582Z,14.77
2023-03-02T20:21:56.908Z,13.07
2023-03-02T20:27:03.286Z,11.40
2023-03-02T20:32:10.350Z,12.65
2023-03-02T20:37:21.434Z,13.10
2023-03-02T20:42:25.874Z,11.43
2023-03-02T20:47:31.725Z,11.77
2023-03-02T20:52:39.078Z,13.03
2023-03-02T20:57:44.362Z,12.93
2023-03-02T21:02:50.534Z,14.45
2023-03-02T21:07:58.867Z,12.05
2023-03-02T21:13:03.572Z,16.10
2023-03-02T21:18:07.287Z,12.83
2023-03-02T21:23:14.256Z,13.80
2023-03-02T21:28:17.910Z,13.53
2023-03-02T21:33:21.706Z,13.53
2023-03-02T21:38:28.562Z,12.77
2023-03-02T21:43:32.278Z,13.17
2023-03-02T21:48:35.873Z,13.80
2023-03-02T21:53:41.332Z,14.97
2023-03-02T21:58:44.642Z,13.83
2023-03-02T22:03:48.394Z,15.30
2023-03-02T22:08:53.936Z,13.50
2023-03-02T22:13:59.956Z,12.77
2023-03-02T22:19:06.867Z,14.37
2023-03-02T22:24:22.535Z,14.33
2023-03-02T22:29:27.556Z,12.70
2023-03-02T22:34:36.116Z,19.20
2023-03-02T22:39:42.343Z,16.20
2023-03-02T22:44:52.102Z,17.23
2023-03-02T22:49:59.052Z,15.67
2023-03-02T22:55:04.762Z,15.87
2023-03-02T23:00:35.719Z,15.90
2023-03-02T23:05:39.465Z,10.37
2023-03-02T23:10:44.916Z,13.43
2023-03-02T23:15:49.732Z,12.20
2023-03-02T23:20:53.739Z,14.45
2023-03-02T23:25:58.935Z,10.77
2023-03-02T23:31:02.345Z,14.20
2023-03-02T23:36:06.453Z,13.53
2023-03-02T23:41:12.599Z,11.87
2023-03-02T23:46:16.269Z,13.93
2023-03-02T23:51:20.001Z,11.93
2023-03-02T23:56:25.385Z,11.83
